sensor_id;sensor_type;location;lat;lon;timestamp;temperature;humidity
41694;DHT22;27377;50.666;9.150;2023-09-08T00:02:03;14.60;99.90
41694;DHT22;27377;50.666;9.150;2023-09-08T00:04:29;14.60;99.90
41694;DHT22;27377;50.666;9.150;2023-09-08T00:06:54;14.60;99.90
41694;DHT22;27377;50.666;9.150;2023-09-08T00:09:20;14.60;99.90
41694;DHT22;27377;50.666;9.150;2023-09-08T00:11:46;14.50;99.90
41694;DHT22;27377;50.666;9.150;2023-09-08T00:14:11;14.50;99.90
41694;DHT22;27377;50.666;9.150;2023-09-08T00:16:37;14.40;99.90
41694;DHT22;27377;50.666;9.150;2023-09-08T00:19:04;14.40;99.90
41694;DHT22;27377;50.666;9.150;2023-09-08T00:21:30;14.40;99.90
41694;DHT22;27377;50.666;9.150;2023-09-08T00:23:56;14.40;99.90
41694;DHT22;27377;50.666;9.150;2023-09-08T00:26:22;14.30;99.90
41694;DHT22;27377;50.666;9.150;2023-09-08T00:28:48;14.30;99.90
41694;DHT22;27377;50.666;9.150;2023-09-08T00:31:13;14.20;99.90
41694;DHT22;27377;50.666;9.150;2023-09-08T00:33:39;14.20;99.90
41694;DHT22;27377;50.666;9.150;2023-09-08T00:36:06;14.10;99.90
41694;DHT22;27377;50.666;9.150;2023-09-08T00:38:32;14.10;99.90
41694;DHT22;27377;50.666;9.150;2023-09-08T00:40:57;14.10;99.90
41694;DHT22;27377;50.666;9.150;2023-09-08T00:43:24;14.10;99.90
41694;DHT22;27377;50.666;9.150;2023-09-08T00:45:50;14.10;99.90
41694;DHT22;27377;50.666;9.150;2023-09-08T00:48:15;14.10;99.90
41694;DHT22;27377;50.666;9.150;2023-09-08T00:50:41;14.10;99.90
41694;DHT22;27377;50.666;9.150;2023-09-08T00:53:08;14.10;99.90
41694;DHT22;27377;50.666;9.150;2023-09-08T00:55:34;14.00;99.90
41694;DHT22;27377;50.666;9.150;2023-09-08T00:58:01;14.00;99.90
41694;DHT22;27377;50.666;9.150;2023-09-08T01:00:27;13.90;99.90
41694;DHT22;27377;50.666;9.150;2023-09-08T01:02:53;13.80;99.90
41694;DHT22;27377;50.666;9.150;2023-09-08T01:05:19;13.80;99.90
41694;DHT22;27377;50.666;9.150;2023-09-08T01:07:46;13.80;99.90
41694;DHT22;27377;50.666;9.150;2023-09-08T01:10:13;13.70;99.90
41694;DHT22;27377;50.666;9.150;2023-09-08T01:12:40;13.70;99.90
41694;DHT22;27377;50.666;9.150;2023-09-08T01:15:06;13.70;99.90
41694;DHT22;27377;50.666;9.150;2023-09-08T01:17:32;13.70;99.90
41694;DHT22;27377;50.666;9.150;2023-09-08T01:20:03;13.70;99.90
41694;DHT22;27377;50.666;9.150;2023-09-08T01:22:47;13.60;99.90
41694;DHT22;27377;50.666;9.150;2023-09-08T01:25:24;13.60;99.90
41694;DHT22;27377;50.666;9.150;2023-09-08T01:27:52;13.50;99.90
41694;DHT22;27377;50.666;9.150;2023-09-08T01:30:19;13.50;99.90
41694;DHT22;27377;50.666;9.150;2023-09-08T01:32:47;13.50;99.90
41694;DHT22;27377;50.666;9.150;2023-09-08T01:35:13;13.50;99.90
41694;DHT22;27377;50.666;9.150;2023-09-08T01:37:46;13.40;99.90
41694;DHT22;27377;50.666;9.150;2023-09-08T01:40:12;13.40;99.90
41694;DHT22;27377;50.666;9.150;2023-09-08T01:42:39;13.40;99.90
41694;DHT22;27377;50.666;9.150;2023-09-08T01:45:05;13.40;99.90
41694;DHT22;27377;50.666;9.150;2023-09-08T01:47:31;13.30;99.90
41694;DHT22;27377;50.666;9.150;2023-09-08T01:49:57;13.20;99.90
41694;DHT22;27377;50.666;9.150;2023-09-08T01:52:24;13.20;99.90
41694;DHT22;27377;50.666;9.150;2023-09-08T01:54:50;13.20;99.90
41694;DHT22;27377;50.666;9.150;2023-09-08T01:57:16;13.10;99.90
41694;DHT22;27377;50.666;9.150;2023-09-08T01:59:41;13.00;99.90
41694;DHT22;27377;50.666;9.150;2023-09-08T02:02:07;13.00;99.90
41694;DHT22;27377;50.666;9.150;2023-09-08T02:04:33;12.90;99.90
41694;DHT22;27377;50.666;9.150;2023-09-08T02:06:58;12.90;99.90
41694;DHT22;27377;50.666;9.150;2023-09-08T02:09:32;12.80;99.90
41694;DHT22;27377;50.666;9.150;2023-09-08T02:11:58;12.80;99.90
41694;DHT22;27377;50.666;9.150;2023-09-08T02:14:24;12.80;99.90
41694;DHT22;27377;50.666;9.150;2023-09-08T02:16:50;12.80;99.90
41694;DHT22;27377;50.666;9.150;2023-09-08T02:19:15;12.80;99.90
41694;DHT22;27377;50.666;9.150;2023-09-08T02:21:41;12.80;99.90
41694;DHT22;27377;50.666;9.150;2023-09-08T02:24:06;12.90;99.90
41694;DHT22;27377;50.666;9.150;2023-09-08T02:26:32;12.80;99.90
41694;DHT22;27377;50.666;9.150;2023-09-08T02:28:59;12.80;99.90
41694;DHT22;27377;50.666;9.150;2023-09-08T02:31:26;12.80;99.90
41694;DHT22;27377;50.666;9.150;2023-09-08T02:37:22;12.80;99.90
41694;DHT22;27377;50.666;9.150;2023-09-08T02:39:48;12.70;99.90
41694;DHT22;27377;50.666;9.150;2023-09-08T02:42:13;12.70;99.90
41694;DHT22;27377;50.666;9.150;2023-09-08T02:44:39;12.70;99.90
41694;DHT22;27377;50.666;9.150;2023-09-08T02:47:05;12.60;99.90
41694;DHT22;27377;50.666;9.150;2023-09-08T02:49:31;12.60;99.90
41694;DHT22;27377;50.666;9.150;2023-09-08T02:51:57;12.50;99.90
41694;DHT22;27377;50.666;9.150;2023-09-08T02:54:23;12.50;99.90
41694;DHT22;27377;50.666;9.150;2023-09-08T02:56:48;12.50;99.90
41694;DHT22;27377;50.666;9.150;2023-09-08T02:59:14;12.50;99.90
41694;DHT22;27377;50.666;9.150;2023-09-08T03:01:39;12.50;99.90
41694;DHT22;27377;50.666;9.150;2023-09-08T03:04:05;12.50;99.90
41694;DHT22;27377;50.666;9.150;2023-09-08T03:06:31;12.50;99.90
41694;DHT22;27377;50.666;9.150;2023-09-08T03:08:58;12.50;99.90
41694;DHT22;27377;50.666;9.150;2023-09-08T03:11:24;12.50;99.90
41694;DHT22;27377;50.666;9.150;2023-09-08T03:13:49;12.50;99.90
41694;DHT22;27377;50.666;9.150;2023-09-08T03:16:15;12.50;99.90
41694;DHT22;27377;50.666;9.150;2023-09-08T03:18:41;12.50;99.90
41694;DHT22;27377;50.666;9.150;2023-09-08T03:21:07;12.50;99.90
41694;DHT22;27377;50.666;9.150;2023-09-08T03:23:40;12.50;99.90
41694;DHT22;27377;50.666;9.150;2023-09-08T03:26:07;12.40;99.90
41694;DHT22;27377;50.666;9.150;2023-09-08T03:28:33;12.30;99.90
41694;DHT22;27377;50.666;9.150;2023-09-08T03:31:00;12.30;99.90
41694;DHT22;27377;50.666;9.150;2023-09-08T03:33:26;12.20;99.90
41694;DHT22;27377;50.666;9.150;2023-09-08T03:35:51;12.20;99.90
41694;DHT22;27377;50.666;9.150;2023-09-08T03:38:17;12.20;99.90
41694;DHT22;27377;50.666;9.150;2023-09-08T03:40:43;12.20;99.90
41694;DHT22;27377;50.666;9.150;2023-09-08T03:43:09;12.30;99.90
41694;DHT22;27377;50.666;9.150;2023-09-08T03:45:34;12.30;99.90
41694;DHT22;27377;50.666;9.150;2023-09-08T03:48:00;12.30;99.90
41694;DHT22;27377;50.666;9.150;2023-09-08T03:50:26;12.30;99.90
41694;DHT22;27377;50.666;9.150;2023-09-08T03:52:52;12.30;99.90
41694;DHT22;27377;50.666;9.150;2023-09-08T03:55:18;12.20;99.90
41694;DHT22;27377;50.666;9.150;2023-09-08T03:57:44;12.20;99.90
41694;DHT22;27377;50.666;9.150;2023-09-08T04:00:11;12.10;99.90
41694;DHT22;27377;50.666;9.150;2023-09-08T04:02:37;12.00;99.90
41694;DHT22;27377;50.666;9.150;2023-09-08T04:05:03;11.90;99.90
41694;DHT22;27377;50.666;9.150;2023-09-08T04:07:28;11.90;99.90
41694;DHT22;27377;50.666;9.150;2023-09-08T04:09:54;11.90;99.90
41694;DHT22;27377;50.666;9.150;2023-09-08T04:12:20;11.90;99.90
41694;DHT22;27377;50.666;9.150;2023-09-08T04:14:47;11.80;99.90
41694;DHT22;27377;50.666;9.150;2023-09-08T04:17:14;11.80;99.90
41694;DHT22;27377;50.666;9.150;2023-09-08T04:19:40;11.80;99.90
41694;DHT22;27377;50.666;9.150;2023-09-08T04:22:06;11.80;99.90
41694;DHT22;27377;50.666;9.150;2023-09-08T04:24:35;11.80;99.90
41694;DHT22;27377;50.666;9.150;2023-09-08T04:27:01;11.90;99.90
41694;DHT22;27377;50.666;9.150;2023-09-08T04:29:28;11.90;99.90
41694;DHT22;27377;50.666;9.150;2023-09-08T04:31:53;11.80;99.90
41694;DHT22;27377;50.666;9.150;2023-09-08T04:34:19;11.80;99.90
41694;DHT22;27377;50.666;9.150;2023-09-08T04:36:44;11.70;99.90
41694;DHT22;27377;50.666;9.150;2023-09-08T04:39:10;11.70;99.90
41694;DHT22;27377;50.666;9.150;2023-09-08T04:41:37;11.70;99.90
41694;DHT22;27377;50.666;9.150;2023-09-08T04:44:03;11.80;99.90
41694;DHT22;27377;50.666;9.150;2023-09-08T04:46:30;11.80;99.90
41694;DHT22;27377;50.666;9.150;2023-09-08T04:48:57;11.70;99.90
41694;DHT22;27377;50.666;9.150;2023-09-08T04:51:22;11.70;99.90
41694;DHT22;27377;50.666;9.150;2023-09-08T04:53:50;11.70;99.90
41694;DHT22;27377;50.666;9.150;2023-09-08T04:56:16;11.70;99.90
41694;DHT22;27377;50.666;9.150;2023-09-08T04:58:41;11.70;99.90
41694;DHT22;27377;50.666;9.150;2023-09-08T05:01:07;11.70;99.90
41694;DHT22;27377;50.666;9.150;2023-09-08T05:03:33;11.80;99.90
41694;DHT22;27377;50.666;9.150;2023-09-08T05:05:58;11.80;99.90
41694;DHT22;27377;50.666;9.150;2023-09-08T05:08:24;11.70;99.90
41694;DHT22;27377;50.666;9.150;2023-09-08T05:10:50;11.70;99.90
41694;DHT22;27377;50.666;9.150;2023-09-08T05:13:17;11.70;99.90
41694;DHT22;27377;50.666;9.150;2023-09-08T05:15:43;11.70;99.90
41694;DHT22;27377;50.666;9.150;2023-09-08T05:18:09;11.60;99.90
41694;DHT22;27377;50.666;9.150;2023-09-08T05:20:35;11.60;99.90
41694;DHT22;27377;50.666;9.150;2023-09-08T05:23:01;11.60;99.90
41694;DHT22;27377;50.666;9.150;2023-09-08T05:25:27;11.50;99.90
41694;DHT22;27377;50.666;9.150;2023-09-08T05:27:53;11.50;99.90
41694;DHT22;27377;50.666;9.150;2023-09-08T05:30:22;11.50;99.90
41694;DHT22;27377;50.666;9.150;2023-09-08T05:32:48;11.50;99.90
41694;DHT22;27377;50.666;9.150;2023-09-08T05:35:14;11.50;99.90
41694;DHT22;27377;50.666;9.150;2023-09-08T05:37:39;11.60;99.90
41694;DHT22;27377;50.666;9.150;2023-09-08T05:40:06;11.60;99.90
41694;DHT22;27377;50.666;9.150;2023-09-08T05:42:32;11.60;99.90
41694;DHT22;27377;50.666;9.150;2023-09-08T05:44:57;11.70;99.90
41694;DHT22;27377;50.666;9.150;2023-09-08T05:47:23;11.60;99.90
41694;DHT22;27377;50.666;9.150;2023-09-08T05:49:48;11.70;99.90
41694;DHT22;27377;50.666;9.150;2023-09-08T05:52:14;11.70;99.90
41694;DHT22;27377;50.666;9.150;2023-09-08T05:54:40;11.80;99.90
41694;DHT22;27377;50.666;9.150;2023-09-08T05:57:06;11.80;99.90
41694;DHT22;27377;50.666;9.150;2023-09-08T05:59:31;11.80;99.90
41694;DHT22;27377;50.666;9.150;2023-09-08T06:02:00;11.90;99.90
41694;DHT22;27377;50.666;9.150;2023-09-08T06:04:25;11.90;99.90
41694;DHT22;27377;50.666;9.150;2023-09-08T06:06:51;11.90;99.90
41694;DHT22;27377;50.666;9.150;2023-09-08T06:09:18;12.00;99.90
41694;DHT22;27377;50.666;9.150;2023-09-08T06:11:44;12.00;99.90
41694;DHT22;27377;50.666;9.150;2023-09-08T06:14:11;12.10;99.90
41694;DHT22;27377;50.666;9.150;2023-09-08T06:16:37;12.10;99.90
41694;DHT22;27377;50.666;9.150;2023-09-08T06:19:03;12.20;99.90
41694;DHT22;27377;50.666;9.150;2023-09-08T06:21:29;12.20;99.90
41694;DHT22;27377;50.666;9.150;2023-09-08T06:23:54;12.40;99.90
41694;DHT22;27377;50.666;9.150;2023-09-08T06:26:20;12.40;99.90
41694;DHT22;27377;50.666;9.150;2023-09-08T06:28:45;12.50;99.90
41694;DHT22;27377;50.666;9.150;2023-09-08T06:31:11;12.60;99.90
41694;DHT22;27377;50.666;9.150;2023-09-08T06:33:37;12.70;99.90
41694;DHT22;27377;50.666;9.150;2023-09-08T06:36:02;12.80;99.90
41694;DHT22;27377;50.666;9.150;2023-09-08T06:38:28;12.90;99.90
41694;DHT22;27377;50.666;9.150;2023-09-08T06:40:57;13.00;99.90
41694;DHT22;27377;50.666;9.150;2023-09-08T06:43:22;13.10;99.90
41694;DHT22;27377;50.666;9.150;2023-09-08T06:45:49;13.10;99.90
41694;DHT22;27377;50.666;9.150;2023-09-08T06:48:15;13.20;99.90
41694;DHT22;27377;50.666;9.150;2023-09-08T06:50:44;13.30;99.90
41694;DHT22;27377;50.666;9.150;2023-09-08T06:53:10;13.40;99.90
41694;DHT22;27377;50.666;9.150;2023-09-08T06:55:38;13.50;99.90
41694;DHT22;27377;50.666;9.150;2023-09-08T06:58:03;13.60;99.90
41694;DHT22;27377;50.666;9.150;2023-09-08T07:00:29;13.70;99.90
41694;DHT22;27377;50.666;9.150;2023-09-08T07:02:54;13.80;99.90
41694;DHT22;27377;50.666;9.150;2023-09-08T07:05:20;13.90;99.90
41694;DHT22;27377;50.666;9.150;2023-09-08T07:07:45;13.90;99.90
41694;DHT22;27377;50.666;9.150;2023-09-08T07:10:12;14.00;99.90
41694;DHT22;27377;50.666;9.150;2023-09-08T07:12:38;14.10;99.90
41694;DHT22;27377;50.666;9.150;2023-09-08T07:15:04;14.10;99.90
41694;DHT22;27377;50.666;9.150;2023-09-08T07:17:29;14.20;99.90
41694;DHT22;27377;50.666;9.150;2023-09-08T07:19:55;14.30;99.90
41694;DHT22;27377;50.666;9.150;2023-09-08T07:22:21;14.40;99.90
41694;DHT22;27377;50.666;9.150;2023-09-08T07:24:55;14.50;99.90
41694;DHT22;27377;50.666;9.150;2023-09-08T07:27:20;14.60;99.90
41694;DHT22;27377;50.666;9.150;2023-09-08T07:29:46;14.60;99.90
41694;DHT22;27377;50.666;9.150;2023-09-08T07:32:16;14.70;99.90
41694;DHT22;27377;50.666;9.150;2023-09-08T07:34:42;14.70;99.90
41694;DHT22;27377;50.666;9.150;2023-09-08T07:37:08;14.80;99.90
41694;DHT22;27377;50.666;9.150;2023-09-08T07:39:34;14.90;99.90
41694;DHT22;27377;50.666;9.150;2023-09-08T07:42:01;15.00;99.90
41694;DHT22;27377;50.666;9.150;2023-09-08T07:44:26;15.10;99.90
41694;DHT22;27377;50.666;9.150;2023-09-08T07:46:52;15.20;99.90
41694;DHT22;27377;50.666;9.150;2023-09-08T07:49:22;15.40;99.90
41694;DHT22;27377;50.666;9.150;2023-09-08T07:51:48;15.50;99.90
41694;DHT22;27377;50.666;9.150;2023-09-08T07:54:14;15.60;99.90
41694;DHT22;27377;50.666;9.150;2023-09-08T07:56:40;15.70;99.90
41694;DHT22;27377;50.666;9.150;2023-09-08T07:59:08;15.80;99.90
41694;DHT22;27377;50.666;9.150;2023-09-08T08:01:34;15.90;99.90
41694;DHT22;27377;50.666;9.150;2023-09-08T08:03:59;15.90;99.90
41694;DHT22;27377;50.666;9.150;2023-09-08T08:06:27;16.10;99.90
41694;DHT22;27377;50.666;9.150;2023-09-08T08:08:52;16.20;99.90
41694;DHT22;27377;50.666;9.150;2023-09-08T08:11:18;16.30;99.90
41694;DHT22;27377;50.666;9.150;2023-09-08T08:13:45;16.30;99.90
41694;DHT22;27377;50.666;9.150;2023-09-08T08:16:11;16.40;99.90
41694;DHT22;27377;50.666;9.150;2023-09-08T08:18:41;16.50;99.90
41694;DHT22;27377;50.666;9.150;2023-09-08T08:21:07;16.60;99.90
41694;DHT22;27377;50.666;9.150;2023-09-08T08:23:33;16.70;99.90
41694;DHT22;27377;50.666;9.150;2023-09-08T08:25:59;16.80;99.90
41694;DHT22;27377;50.666;9.150;2023-09-08T08:28:25;16.90;99.90
41694;DHT22;27377;50.666;9.150;2023-09-08T08:30:51;17.00;99.90
41694;DHT22;27377;50.666;9.150;2023-09-08T08:33:18;17.10;99.90
41694;DHT22;27377;50.666;9.150;2023-09-08T08:35:53;17.20;99.90
41694;DHT22;27377;50.666;9.150;2023-09-08T08:38:19;17.30;99.90
41694;DHT22;27377;50.666;9.150;2023-09-08T08:40:45;17.40;99.90
41694;DHT22;27377;50.666;9.150;2023-09-08T08:43:11;17.50;99.90
41694;DHT22;27377;50.666;9.150;2023-09-08T08:45:38;17.50;99.90
41694;DHT22;27377;50.666;9.150;2023-09-08T08:48:05;17.60;99.90
41694;DHT22;27377;50.666;9.150;2023-09-08T08:50:35;17.70;99.90
41694;DHT22;27377;50.666;9.150;2023-09-08T08:53:01;17.80;99.90
41694;DHT22;27377;50.666;9.150;2023-09-08T08:55:30;17.80;99.90
41694;DHT22;27377;50.666;9.150;2023-09-08T08:58:05;17.80;99.90
41694;DHT22;27377;50.666;9.150;2023-09-08T09:00:34;17.90;99.90
41694;DHT22;27377;50.666;9.150;2023-09-08T09:03:01;18.00;99.90
41694;DHT22;27377;50.666;9.150;2023-09-08T09:05:29;18.00;99.90
41694;DHT22;27377;50.666;9.150;2023-09-08T09:07:57;18.10;99.90
41694;DHT22;27377;50.666;9.150;2023-09-08T09:10:24;18.10;99.90
41694;DHT22;27377;50.666;9.150;2023-09-08T09:12:50;18.20;99.90
41694;DHT22;27377;50.666;9.150;2023-09-08T09:15:16;18.30;99.90
41694;DHT22;27377;50.666;9.150;2023-09-08T09:17:41;18.30;99.90
41694;DHT22;27377;50.666;9.150;2023-09-08T09:20:18;18.40;99.90
41694;DHT22;27377;50.666;9.150;2023-09-08T09:22:49;18.50;99.90
41694;DHT22;27377;50.666;9.150;2023-09-08T09:25:26;18.50;99.90
41694;DHT22;27377;50.666;9.150;2023-09-08T09:27:56;18.60;99.90
41694;DHT22;27377;50.666;9.150;2023-09-08T09:30:23;18.70;99.90
41694;DHT22;27377;50.666;9.150;2023-09-08T09:33:00;18.70;99.90
41694;DHT22;27377;50.666;9.150;2023-09-08T09:35:44;18.80;99.90
41694;DHT22;27377;50.666;9.150;2023-09-08T09:38:11;18.90;99.90
41694;DHT22;27377;50.666;9.150;2023-09-08T09:40:37;19.00;99.90
41694;DHT22;27377;50.666;9.150;2023-09-08T09:43:05;19.00;99.90
41694;DHT22;27377;50.666;9.150;2023-09-08T09:45:33;19.10;99.90
41694;DHT22;27377;50.666;9.150;2023-09-08T09:48:01;19.10;99.90
41694;DHT22;27377;50.666;9.150;2023-09-08T09:50:37;19.10;99.90
41694;DHT22;27377;50.666;9.150;2023-09-08T09:53:13;19.10;99.90
41694;DHT22;27377;50.666;9.150;2023-09-08T09:55:40;19.20;99.90
41694;DHT22;27377;50.666;9.150;2023-09-08T09:58:07;19.30;99.90
41694;DHT22;27377;50.666;9.150;2023-09-08T10:00:34;19.40;99.90
41694;DHT22;27377;50.666;9.150;2023-09-08T10:03:00;19.40;99.90
41694;DHT22;27377;50.666;9.150;2023-09-08T10:05:27;19.50;99.90
41694;DHT22;27377;50.666;9.150;2023-09-08T10:07:53;19.50;99.90
41694;DHT22;27377;50.666;9.150;2023-09-08T10:10:20;19.50;99.90
41694;DHT22;27377;50.666;9.150;2023-09-08T10:12:51;19.60;99.90
41694;DHT22;27377;50.666;9.150;2023-09-08T10:15:21;19.60;99.90
41694;DHT22;27377;50.666;9.150;2023-09-08T10:17:55;19.70;99.90
41694;DHT22;27377;50.666;9.150;2023-09-08T10:20:23;19.70;99.90
41694;DHT22;27377;50.666;9.150;2023-09-08T10:22:53;19.80;99.90
41694;DHT22;27377;50.666;9.150;2023-09-08T10:25:21;19.80;99.90
41694;DHT22;27377;50.666;9.150;2023-09-08T10:27:49;19.80;99.90
41694;DHT22;27377;50.666;9.150;2023-09-08T10:30:15;19.80;99.90
41694;DHT22;27377;50.666;9.150;2023-09-08T10:32:43;19.90;99.90
41694;DHT22;27377;50.666;9.150;2023-09-08T10:35:09;19.90;99.90
41694;DHT22;27377;50.666;9.150;2023-09-08T10:37:35;20.00;99.90
41694;DHT22;27377;50.666;9.150;2023-09-08T10:40:21;20.10;99.90
41694;DHT22;27377;50.666;9.150;2023-09-08T10:42:47;20.10;99.90
41694;DHT22;27377;50.666;9.150;2023-09-08T10:45:17;20.10;99.90
41694;DHT22;27377;50.666;9.150;2023-09-08T10:50:19;20.20;99.90
41694;DHT22;27377;50.666;9.150;2023-09-08T10:53:12;20.20;99.90
41694;DHT22;27377;50.666;9.150;2023-09-08T10:58:20;20.30;99.90
41694;DHT22;27377;50.666;9.150;2023-09-08T11:00:48;20.40;99.90
41694;DHT22;27377;50.666;9.150;2023-09-08T11:03:42;20.50;99.90
41694;DHT22;27377;50.666;9.150;2023-09-08T11:06:09;20.50;99.90
41694;DHT22;27377;50.666;9.150;2023-09-08T11:08:43;20.50;99.90
41694;DHT22;27377;50.666;9.150;2023-09-08T11:11:13;20.60;99.90
41694;DHT22;27377;50.666;9.150;2023-09-08T11:13:39;20.60;99.90
41694;DHT22;27377;50.666;9.150;2023-09-08T11:16:06;20.70;99.90
41694;DHT22;27377;50.666;9.150;2023-09-08T11:18:32;20.70;99.90
41694;DHT22;27377;50.666;9.150;2023-09-08T11:21:03;20.80;99.90
41694;DHT22;27377;50.666;9.150;2023-09-08T11:23:29;20.80;99.90
41694;DHT22;27377;50.666;9.150;2023-09-08T11:25:55;20.80;99.90
41694;DHT22;27377;50.666;9.150;2023-09-08T11:28:24;20.80;99.90
41694;DHT22;27377;50.666;9.150;2023-09-08T11:30:52;20.90;99.90
41694;DHT22;27377;50.666;9.150;2023-09-08T11:33:20;20.90;99.90
41694;DHT22;27377;50.666;9.150;2023-09-08T11:35:51;21.00;99.90
41694;DHT22;27377;50.666;9.150;2023-09-08T11:38:25;21.00;99.90
41694;DHT22;27377;50.666;9.150;2023-09-08T11:40:51;21.10;99.90
41694;DHT22;27377;50.666;9.150;2023-09-08T11:43:18;21.10;99.90
41694;DHT22;27377;50.666;9.150;2023-09-08T11:45:44;21.10;99.90
41694;DHT22;27377;50.666;9.150;2023-09-08T11:48:10;21.20;99.90
41694;DHT22;27377;50.666;9.150;2023-09-08T11:50:35;21.20;99.90
41694;DHT22;27377;50.666;9.150;2023-09-08T11:53:01;21.20;99.90
41694;DHT22;27377;50.666;9.150;2023-09-08T11:55:28;21.30;99.90
41694;DHT22;27377;50.666;9.150;2023-09-08T11:57:55;21.30;99.90
41694;DHT22;27377;50.666;9.150;2023-09-08T12:00:23;21.40;99.90
41694;DHT22;27377;50.666;9.150;2023-09-08T12:02:51;21.40;99.90
41694;DHT22;27377;50.666;9.150;2023-09-08T12:05:27;21.40;99.90
41694;DHT22;27377;50.666;9.150;2023-09-08T12:07:55;21.50;99.90
41694;DHT22;27377;50.666;9.150;2023-09-08T12:10:22;21.50;99.90
41694;DHT22;27377;50.666;9.150;2023-09-08T12:12:52;21.50;99.90
41694;DHT22;27377;50.666;9.150;2023-09-08T12:15:33;21.60;99.90
41694;DHT22;27377;50.666;9.150;2023-09-08T12:18:01;21.60;99.90
41694;DHT22;27377;50.666;9.150;2023-09-08T12:20:27;21.60;99.90
41694;DHT22;27377;50.666;9.150;2023-09-08T12:22:53;21.60;99.90
41694;DHT22;27377;50.666;9.150;2023-09-08T12:25:19;21.60;99.90
41694;DHT22;27377;50.666;9.150;2023-09-08T12:27:45;21.70;99.90
41694;DHT22;27377;50.666;9.150;2023-09-08T12:30:19;21.70;99.90
41694;DHT22;27377;50.666;9.150;2023-09-08T12:32:46;21.70;99.90
41694;DHT22;27377;50.666;9.150;2023-09-08T12:35:20;21.70;99.90
41694;DHT22;27377;50.666;9.150;2023-09-08T12:37:46;21.80;99.90
41694;DHT22;27377;50.666;9.150;2023-09-08T12:40:13;21.80;99.90
41694;DHT22;27377;50.666;9.150;2023-09-08T12:42:40;21.80;99.90
41694;DHT22;27377;50.666;9.150;2023-09-08T12:45:06;21.90;99.90
41694;DHT22;27377;50.666;9.150;2023-09-08T12:47:32;21.90;99.90
41694;DHT22;27377;50.666;9.150;2023-09-08T12:49:58;22.00;99.90
41694;DHT22;27377;50.666;9.150;2023-09-08T12:52:23;22.00;99.90
41694;DHT22;27377;50.666;9.150;2023-09-08T12:54:49;22.10;99.90
41694;DHT22;27377;50.666;9.150;2023-09-08T12:57:14;22.10;99.90
41694;DHT22;27377;50.666;9.150;2023-09-08T12:59:40;22.20;99.90
41694;DHT22;27377;50.666;9.150;2023-09-08T13:02:06;22.10;99.90
41694;DHT22;27377;50.666;9.150;2023-09-08T13:04:32;22.20;99.90
41694;DHT22;27377;50.666;9.150;2023-09-08T13:06:57;22.20;99.90
41694;DHT22;27377;50.666;9.150;2023-09-08T13:09:23;22.20;99.90
41694;DHT22;27377;50.666;9.150;2023-09-08T13:11:49;22.20;99.90
41694;DHT22;27377;50.666;9.150;2023-09-08T13:14:16;22.20;99.90
41694;DHT22;27377;50.666;9.150;2023-09-08T13:16:43;22.20;99.90
41694;DHT22;27377;50.666;9.150;2023-09-08T13:19:08;22.30;99.90
41694;DHT22;27377;50.666;9.150;2023-09-08T13:21:34;22.30;99.90
41694;DHT22;27377;50.666;9.150;2023-09-08T13:24:00;22.30;99.90
41694;DHT22;27377;50.666;9.150;2023-09-08T13:26:25;22.30;99.90
41694;DHT22;27377;50.666;9.150;2023-09-08T13:28:51;22.30;99.90
41694;DHT22;27377;50.666;9.150;2023-09-08T13:31:17;22.40;99.90
41694;DHT22;27377;50.666;9.150;2023-09-08T13:33:43;22.40;99.90
41694;DHT22;27377;50.666;9.150;2023-09-08T13:36:09;22.40;99.90
41694;DHT22;27377;50.666;9.150;2023-09-08T13:38:34;22.40;99.90
41694;DHT22;27377;50.666;9.150;2023-09-08T13:41:01;22.40;99.90
41694;DHT22;27377;50.666;9.150;2023-09-08T13:43:26;22.40;99.90
41694;DHT22;27377;50.666;9.150;2023-09-08T13:45:52;22.40;99.90
41694;DHT22;27377;50.666;9.150;2023-09-08T13:48:17;22.40;99.90
41694;DHT22;27377;50.666;9.150;2023-09-08T13:50:43;22.40;99.90
41694;DHT22;27377;50.666;9.150;2023-09-08T13:53:08;22.40;99.90
41694;DHT22;27377;50.666;9.150;2023-09-08T13:55:34;22.40;99.90
41694;DHT22;27377;50.666;9.150;2023-09-08T13:57:59;22.50;99.90
41694;DHT22;27377;50.666;9.150;2023-09-08T14:00:25;22.50;99.90
41694;DHT22;27377;50.666;9.150;2023-09-08T14:02:51;22.50;99.90
41694;DHT22;27377;50.666;9.150;2023-09-08T14:05:16;22.50;99.90
41694;DHT22;27377;50.666;9.150;2023-09-08T14:07:42;22.50;99.90
41694;DHT22;27377;50.666;9.150;2023-09-08T14:10:07;22.50;99.90
41694;DHT22;27377;50.666;9.150;2023-09-08T14:12:34;22.50;99.90
41694;DHT22;27377;50.666;9.150;2023-09-08T14:15:00;22.50;99.90
41694;DHT22;27377;50.666;9.150;2023-09-08T14:17:25;22.60;99.90
41694;DHT22;27377;50.666;9.150;2023-09-08T14:19:51;22.60;99.90
41694;DHT22;27377;50.666;9.150;2023-09-08T14:22:16;22.60;99.90
41694;DHT22;27377;50.666;9.150;2023-09-08T14:24:42;22.60;99.90
41694;DHT22;27377;50.666;9.150;2023-09-08T14:27:08;22.50;99.90
41694;DHT22;27377;50.666;9.150;2023-09-08T14:29:34;22.50;99.90
41694;DHT22;27377;50.666;9.150;2023-09-08T14:32:00;22.50;99.90
41694;DHT22;27377;50.666;9.150;2023-09-08T14:34:28;22.60;99.90
41694;DHT22;27377;50.666;9.150;2023-09-08T14:36:54;22.60;99.90
41694;DHT22;27377;50.666;9.150;2023-09-08T14:39:19;22.60;99.90
41694;DHT22;27377;50.666;9.150;2023-09-08T14:41:46;22.60;99.90
41694;DHT22;27377;50.666;9.150;2023-09-08T14:44:12;22.60;99.90
41694;DHT22;27377;50.666;9.150;2023-09-08T14:46:37;22.60;99.90
41694;DHT22;27377;50.666;9.150;2023-09-08T14:49:03;22.60;99.90
41694;DHT22;27377;50.666;9.150;2023-09-08T14:51:29;22.60;99.90
41694;DHT22;27377;50.666;9.150;2023-09-08T14:53:55;22.60;99.90
41694;DHT22;27377;50.666;9.150;2023-09-08T14:56:21;22.60;99.90
41694;DHT22;27377;50.666;9.150;2023-09-08T14:58:46;22.70;99.90
41694;DHT22;27377;50.666;9.150;2023-09-08T15:01:12;22.70;99.90
41694;DHT22;27377;50.666;9.150;2023-09-08T15:03:39;22.70;99.90
41694;DHT22;27377;50.666;9.150;2023-09-08T15:06:05;22.70;99.90
41694;DHT22;27377;50.666;9.150;2023-09-08T15:08:33;22.70;99.90
41694;DHT22;27377;50.666;9.150;2023-09-08T15:10:59;22.70;99.90
41694;DHT22;27377;50.666;9.150;2023-09-08T15:13:25;22.70;99.90
41694;DHT22;27377;50.666;9.150;2023-09-08T15:15:50;22.60;99.90
41694;DHT22;27377;50.666;9.150;2023-09-08T15:18:16;22.60;99.90
41694;DHT22;27377;50.666;9.150;2023-09-08T15:20:52;22.70;99.90
41694;DHT22;27377;50.666;9.150;2023-09-08T15:23:18;22.60;99.90
41694;DHT22;27377;50.666;9.150;2023-09-08T15:25:55;22.60;99.90
41694;DHT22;27377;50.666;9.150;2023-09-08T15:28:22;22.70;99.90
41694;DHT22;27377;50.666;9.150;2023-09-08T15:30:52;22.60;99.90
41694;DHT22;27377;50.666;9.150;2023-09-08T15:33:18;22.60;99.90
41694;DHT22;27377;50.666;9.150;2023-09-08T15:35:46;22.70;99.90
41694;DHT22;27377;50.666;9.150;2023-09-08T15:38:12;22.60;99.90